createdAt,value
2022-07-31T00:03:56.240Z,11.63
2022-07-31T00:08:44.747Z,13.17
2022-07-31T00:13:57.727Z,13.87
2022-07-31T00:18:34.303Z,12.63
2022-07-31T00:23:19.434Z,14.37
2022-07-31T00:28:08.003Z,13.17
2022-07-31T00:33:02.971Z,12.60
2022-07-31T00:38:02.178Z,12.53
2022-07-31T00:43:02.415Z,13.00
2022-07-31T00:47:49.484Z,15.00
2022-07-31T00:52:45.893Z,12.40
2022-07-31T00:57:35.264Z,13.77
2022-07-31T01:02:27.672Z,13.10
2022-07-31T01:07:14.174Z,12.70
2022-07-31T01:12:02.599Z,13.40
2022-07-31T01:16:56.731Z,12.53
2022-07-31T01:21:53.605Z,12.57
2022-07-31T01:26:49.644Z,12.53
2022-07-31T01:31:45.093Z,11.80
2022-07-31T01:36:35.478Z,12.43
2022-07-31T01:41:27.102Z,12.00
2022-07-31T01:46:14.384Z,12.10
2022-07-31T01:51:03.321Z,11.53
2022-07-31T01:56:02.409Z,11.70
2022-07-31T02:01:00.281Z,10.90
2022-07-31T02:05:48.848Z,10.57
2022-07-31T02:10:38.838Z,11.40
2022-07-31T02:15:24.320Z,11.60
2022-07-31T02:20:17.624Z,12.00
2022-07-31T02:25:05.535Z,11.37
2022-07-31T02:30:01.301Z,11.60
2022-07-31T02:34:49.582Z,9.30
2022-07-31T02:39:36.175Z,11.60
2022-07-31T02:44:27.354Z,10.03
2022-07-31T02:49:31.709Z,9.40
2022-07-31T02:54:33.728Z,10.30
2022-07-31T02:59:18.570Z,10.20
2022-07-31T03:04:25.323Z,11.17
2022-07-31T03:09:12.344Z,9.53
2022-07-31T03:14:03.776Z,8.50
2022-07-31T03:19:00.249Z,9.40
2022-07-31T03:23:56.376Z,8.77
2022-07-31T03:28:43.377Z,8.27
2022-07-31T03:33:28.222Z,9.27
2022-07-31T03:38:42.331Z,8.60
2022-07-31T03:43:24.379Z,8.50
2022-07-31T03:48:09.928Z,8.40
2022-07-31T03:52:57.621Z,7.53
2022-07-31T03:57:44.896Z,7.93
2022-07-31T04:02:33.098Z,7.50
2022-07-31T04:07:35.757Z,8.13
2022-07-31T04:12:21.707Z,6.80
2022-07-31T04:17:08.305Z,7.97
2022-07-31T04:21:54.645Z,6.77
2022-07-31T04:26:38.616Z,6.17
2022-07-31T04:31:22.534Z,6.43
2022-07-31T04:36:06.750Z,6.17
2022-07-31T04:41:12.221Z,6.43
2022-07-31T04:45:56.126Z,6.00
2022-07-31T04:50:40.547Z,5.83
2022-07-31T04:55:24.974Z,5.03
2022-07-31T05:00:11.534Z,5.60
2022-07-31T05:05:04.571Z,7.83
2022-07-31T05:09:52.224Z,5.27
2022-07-31T05:14:35.982Z,5.30
2022-07-31T05:19:21.023Z,5.80
2022-07-31T05:24:40.686Z,5.27
2022-07-31T05:29:27.277Z,6.00
2022-07-31T05:34:11.108Z,5.63
2022-07-31T05:38:56.810Z,4.87
2022-07-31T05:43:55.896Z,4.93
2022-07-31T05:48:47.271Z,5.60
2022-07-31T05:53:31.176Z,5.10
2022-07-31T05:58:17.141Z,4.67
2022-07-31T06:03:01.561Z,4.60
2022-07-31T06:08:03.678Z,5.67
2022-07-31T06:12:52.936Z,4.73
2022-07-31T06:17:44.133Z,5.37
2022-07-31T06:22:45.569Z,4.33
2022-07-31T06:27:33.975Z,4.00
2022-07-31T06:32:18.849Z,5.53
2022-07-31T06:37:04.419Z,4.50
2022-07-31T06:41:49.020Z,4.27
2022-07-31T06:46:49.031Z,3.73
2022-07-31T06:51:51.665Z,4.63
2022-07-31T06:56:38.383Z,5.30
2022-07-31T07:01:29.979Z,5.43
2022-07-31T07:06:14.529Z,4.33
2022-07-31T07:10:59.838Z,3.73
2022-07-31T07:15:49.559Z,7.68
2022-07-31T07:20:35.786Z,4.25
2022-07-31T07:25:20.644Z,4.63
2022-07-31T07:30:08.882Z,3.47
2022-07-31T07:35:00.192Z,4.10
2022-07-31T07:40:03.505Z,5.03
2022-07-31T07:44:47.861Z,5.25
2022-07-31T07:49:31.577Z,3.63
2022-07-31T07:54:36.825Z,3.75
2022-07-31T07:59:39.341Z,3.83
2022-07-31T08:04:52.143Z,4.72
2022-07-31T08:09:38.744Z,3.63
2022-07-31T08:14:41.113Z,3.83
2022-07-31T08:19:46.126Z,4.00
2022-07-31T08:24:32.321Z,3.95
2022-07-31T08:29:17.430Z,4.35
2022-07-31T08:34:31.693Z,4.40
2022-07-31T08:39:21.284Z,5.97
2022-07-31T08:44:10.502Z,5.60
2022-07-31T08:48:58.639Z,3.40
2022-07-31T08:53:45.093Z,4.53
2022-07-31T08:58:39.375Z,3.60
2022-07-31T09:03:25.700Z,4.10
2022-07-31T09:08:15.722Z,5.53
2022-07-31T09:13:14.284Z,3.50
2022-07-31T09:17:58.662Z,5.78
2022-07-31T09:22:43.499Z,3.90
2022-07-31T09:27:31.064Z,4.63
2022-07-31T09:32:18.904Z,3.28
2022-07-31T09:37:16.884Z,3.40
2022-07-31T09:42:21.983Z,3.33
2022-07-31T09:47:23.533Z,3.47
2022-07-31T09:52:07.668Z,2.47
2022-07-31T09:56:52.473Z,5.03
2022-07-31T10:01:38.964Z,4.35
2022-07-31T10:06:26.581Z,3.70
2022-07-31T10:11:16.601Z,3.00
2022-07-31T10:16:10.170Z,5.13
2022-07-31T10:21:35.183Z,3.83
2022-07-31T10:26:50.309Z,4.32
2022-07-31T10:31:32.469Z,3.88
2022-07-31T10:36:21.258Z,4.13
2022-07-31T10:41:38.115Z,6.85
2022-07-31T10:46:28.917Z,5.38
2022-07-31T10:51:32.044Z,4.05
2022-07-31T10:56:44.519Z,5.55
2022-07-31T11:01:52.869Z,3.75
2022-07-31T11:06:56.229Z,3.17
2022-07-31T11:12:22.967Z,3.13
2022-07-31T11:18:23.397Z,8.23
2022-07-31T11:22:58.868Z,3.10
2022-07-31T11:27:45.967Z,3.05
2022-07-31T11:32:29.504Z,5.65
2022-07-31T11:37:18.645Z,3.53
2022-07-31T11:42:07.734Z,4.18
2022-07-31T11:46:56.343Z,3.70
2022-07-31T11:51:40.399Z,3.42
2022-07-31T11:56:25.093Z,3.00
2022-07-31T12:01:08.799Z,4.10
2022-07-31T12:05:54.846Z,4.38
2022-07-31T12:10:41.631Z,3.15
2022-07-31T12:15:25.722Z,4.90
2022-07-31T12:20:10.216Z,3.38
2022-07-31T12:25:05.014Z,2.78
2022-07-31T12:30:01.483Z,3.20
2022-07-31T12:34:46.224Z,2.83
2022-07-31T12:39:53.676Z,2.30
2022-07-31T12:44:35.526Z,3.15
2022-07-31T12:49:19.655Z,3.35
2022-07-31T12:54:04.796Z,1.95
2022-07-31T12:58:48.402Z,1.70
2022-07-31T13:03:45.768Z,3.65
2022-07-31T13:08:30.143Z,2.10
2022-07-31T13:13:35.219Z,4.75
2022-07-31T13:18:38.072Z,2.50
2022-07-31T13:23:22.636Z,3.40
2022-07-31T13:28:06.538Z,2.00
2022-07-31T13:32:50.087Z,3.08
2022-07-31T13:37:35.137Z,2.10
2022-07-31T13:42:19.010Z,2.05
2022-07-31T13:47:03.026Z,2.17
2022-07-31T13:51:46.818Z,3.40
2022-07-31T13:56:39.300Z,2.42
2022-07-31T14:01:27.055Z,4.70
2022-07-31T14:06:30.807Z,1.67
2022-07-31T14:11:15.200Z,3.03
2022-07-31T14:16:00.393Z,1.45
2022-07-31T14:20:43.933Z,3.10
2022-07-31T14:25:27.584Z,1.50
2022-07-31T14:30:12.798Z,2.88
2022-07-31T14:35:08.256Z,1.40
2022-07-31T14:39:52.862Z,1.50
2022-07-31T14:44:37.012Z,5.97
2022-07-31T14:49:20.645Z,1.92
2022-07-31T14:54:05.788Z,2.60
2022-07-31T14:58:57.640Z,1.08
2022-07-31T15:03:42.378Z,0.90
2022-07-31T15:08:25.971Z,0.85
2022-07-31T15:13:11.102Z,1.30
2022-07-31T15:17:54.758Z,1.05
2022-07-31T15:22:39.033Z,1.48
2022-07-31T15:27:24.123Z,2.47
2022-07-31T15:32:09.590Z,1.63
2022-07-31T15:36:53.253Z,2.42
2022-07-31T15:41:37.076Z,1.30
2022-07-31T15:46:20.724Z,1.60
2022-07-31T15:51:08.285Z,2.03
2022-07-31T15:56:11.845Z,3.90
2022-07-31T16:00:55.529Z,1.30
2022-07-31T16:05:39.376Z,1.40
2022-07-31T16:10:25.091Z,1.33
2022-07-31T16:15:09.837Z,1.58
2022-07-31T16:19:53.699Z,2.20
2022-07-31T16:24:37.375Z,3.28
2022-07-31T16:29:59.709Z,3.28
2022-07-31T16:34:27.879Z,3.70
2022-07-31T16:39:20.490Z,4.10
2022-07-31T16:44:04.844Z,1.42
2022-07-31T16:48:49.861Z,2.15
2022-07-31T16:54:13.251Z,2.13
2022-07-31T16:58:44.011Z,1.25
2022-07-31T17:03:59.308Z,1.83
2022-07-31T17:08:33.165Z,1.45
2022-07-31T17:13:16.810Z,2.15
2022-07-31T17:18:00.595Z,1.13
2022-07-31T17:22:44.293Z,1.00
2022-07-31T17:27:36.261Z,1.85
2022-07-31T17:32:20.089Z,1.70
2022-07-31T17:37:04.306Z,4.15
2022-07-31T17:41:48.180Z,1.33
2022-07-31T17:46:36.541Z,1.35
2022-07-31T17:51:28.011Z,2.10
2022-07-31T17:56:13.126Z,1.88
2022-07-31T18:00:57.031Z,1.25
2022-07-31T18:05:42.343Z,1.98
2022-07-31T18:10:45.022Z,1.67
2022-07-31T18:15:35.810Z,1.60
2022-07-31T18:20:21.551Z,1.48
2022-07-31T18:25:08.171Z,1.65
2022-07-31T18:29:55.762Z,1.33
2022-07-31T18:34:59.075Z,2.83
2022-07-31T18:39:49.160Z,1.65
2022-07-31T18:44:35.460Z,1.17
2022-07-31T18:51:02.245Z,1.65
2022-07-31T18:54:25.797Z,2.80
2022-07-31T18:59:10.424Z,1.67
2022-07-31T19:03:57.180Z,1.80
2022-07-31T19:08:41.962Z,1.17
2022-07-31T19:13:29.194Z,1.45
2022-07-31T19:18:14.185Z,3.50
2022-07-31T19:23:00.631Z,2.72
2022-07-31T19:28:11.481Z,2.70
2022-07-31T19:33:19.604Z,1.57
2022-07-31T19:38:30.127Z,2.05
2022-07-31T19:43:29.033Z,2.23
2022-07-31T19:48:13.940Z,3.67
2022-07-31T19:53:07.129Z,1.50
2022-07-31T19:57:58.663Z,1.80
2022-07-31T20:02:52.667Z,2.50
2022-07-31T20:07:42.409Z,2.90
2022-07-31T20:12:29.982Z,2.20
2022-07-31T20:17:16.219Z,2.60
2022-07-31T20:22:03.505Z,2.20
2022-07-31T20:26:55.136Z,1.83
2022-07-31T20:31:39.084Z,1.97
2022-07-31T20:36:28.593Z,2.17
2022-07-31T20:41:18.395Z,1.83
2022-07-31T20:46:04.885Z,4.00
2022-07-31T20:50:51.333Z,2.83
2022-07-31T20:55:41.741Z,2.30
2022-07-31T21:00:47.927Z,2.30
2022-07-31T21:05:35.639Z,1.90
2022-07-31T21:10:19.310Z,2.70
2022-07-31T21:15:31.132Z,2.07
2022-07-31T21:20:16.856Z,2.50
2022-07-31T21:25:06.507Z,2.70
2022-07-31T21:29:56.530Z,3.10
2022-07-31T21:34:48.877Z,2.17
2022-07-31T21:39:36.349Z,2.30
2022-07-31T21:44:23.019Z,4.17
2022-07-31T21:49:09.925Z,1.83
2022-07-31T21:54:01.580Z,2.30
2022-07-31T21:58:46.904Z,2.40
2022-07-31T22:03:32.027Z,5.20
2022-07-31T22:08:19.659Z,3.90
2022-07-31T22:13:16.135Z,3.20
2022-07-31T22:18:00.160Z,3.37
2022-07-31T22:22:49.889Z,2.43
2022-07-31T22:27:56.557Z,2.73
2022-07-31T22:32:45.007Z,2.37
2022-07-31T22:37:32.822Z,2.87
2022-07-31T22:42:20.236Z,2.60
2022-07-31T22:47:07.843Z,3.03
2022-07-31T22:51:57.187Z,4.23
2022-07-31T22:56:41.327Z,3.00
2022-07-31T23:01:29.877Z,2.23
2022-07-31T23:06:30.868Z,3.47
2022-07-31T23:11:18.121Z,2.67
2022-07-31T23:16:03.030Z,4.30
2022-07-31T23:20:46.850Z,2.30
2022-07-31T23:25:30.495Z,2.60
2022-07-31T23:30:19.636Z,2.40
2022-07-31T23:35:04.153Z,2.43
2022-07-31T23:39:48.347Z,3.17
2022-07-31T23:44:32.821Z,5.67
2022-07-31T23:49:25.809Z,2.23
2022-07-31T23:54:10.634Z,2.87
2022-07-31T23:58:54.834Z,2.43
